Time;durP1;ratioP1;P1;durP2;ratioP2;P2;SDS_P1;SDS_P2;PMS_P1;PMS_P2;Temp;Humidity;BMP_temperature;BMP_pressure;BME280_temperature;BME280_humidity;BME280_pressure;Samples;Min_cycle;Max_cycle;Signal;HPM_P1;HPM_P2
2022/07/17 00:00:58;;;;;;;6.00;4.35;;;26.10;92.60;;;;;;4971194;28;20027;-76
2022/07/17 00:03:23;;;;;;;7.93;4.45;;;26.00;92.60;;;;;;4965183;28;20397;-76
2022/07/17 00:05:49;;;;;;;7.18;4.45;;;26.00;92.60;;;;;;4973007;28;20026;-76
2022/07/17 00:08:15;;;;;;;5.75;4.65;;;26.00;92.60;;;;;;4963979;28;20030;-76
2022/07/17 00:10:42;;;;;;;6.43;4.57;;;26.00;92.60;;;;;;4968360;28;20090;-76
2022/07/17 00:13:08;;;;;;;8.27;4.72;;;26.00;92.60;;;;;;4957981;28;20118;-75
2022/07/17 00:15:34;;;;;;;6.57;4.63;;;26.10;92.60;;;;;;4971127;28;20049;-76
2022/07/17 00:18:00;;;;;;;6.97;4.05;;;26.00;92.60;;;;;;4966058;28;20482;-76
2022/07/17 00:20:26;;;;;;;12.52;4.55;;;26.00;92.70;;;;;;4964583;28;20035;-76
2022/07/17 00:22:54;;;;;;;9.25;4.50;;;26.00;92.60;;;;;;4965847;28;20039;-76
2022/07/17 00:25:20;;;;;;;5.93;4.50;;;26.00;92.60;;;;;;4972692;28;20030;-76
2022/07/17 00:27:45;;;;;;;4.88;3.92;;;26.00;92.60;;;;;;4969069;28;20033;-76
2022/07/17 00:30:12;;;;;;;10.52;4.93;;;25.90;92.70;;;;;;4966222;28;20046;-76
2022/07/17 00:32:38;;;;;;;6.90;4.95;;;25.80;92.90;;;;;;4973212;28;20089;-76
2022/07/17 00:35:04;;;;;;;6.28;4.32;;;25.70;92.90;;;;;;4970366;28;20031;-76
2022/07/17 00:37:30;;;;;;;7.28;4.57;;;25.70;93.00;;;;;;4961745;28;20470;-76
2022/07/17 00:39:55;;;;;;;6.28;4.35;;;25.60;93.10;;;;;;4964398;28;20034;-76
2022/07/17 00:42:21;;;;;;;5.55;3.90;;;25.60;93.10;;;;;;4969583;28;20564;-75
2022/07/17 00:44:47;;;;;;;6.22;4.40;;;25.60;93.10;;;;;;4967729;28;20465;-76
2022/07/17 00:47:20;;;;;;;5.85;4.10;;;25.60;93.00;;;;;;4966835;28;20394;-76
2022/07/17 00:49:47;;;;;;;6.32;4.85;;;25.50;93.00;;;;;;4970040;28;20131;-76
2022/07/17 00:52:13;;;;;;;9.82;4.85;;;25.50;93.20;;;;;;4968311;28;20122;-76
2022/07/17 00:54:41;;;;;;;5.82;4.47;;;25.40;93.20;;;;;;4965216;28;20030;-76
2022/07/17 00:57:08;;;;;;;5.70;4.63;;;25.30;93.20;;;;;;4964272;28;20401;-76
2022/07/17 00:59:35;;;;;;;6.90;4.40;;;25.40;93.20;;;;;;4970505;28;20029;-75
2022/07/17 01:02:07;;;;;;;6.15;3.97;;;25.30;93.30;;;;;;4962542;28;20398;-76
2022/07/17 01:04:34;;;;;;;6.30;4.80;;;25.00;93.80;;;;;;4970760;28;20030;-76
2022/07/17 01:07:01;;;;;;;7.00;4.55;;;25.10;93.80;;;;;;4969572;28;20070;-76
2022/07/17 01:09:30;;;;;;;5.55;4.15;;;25.20;93.50;;;;;;4965817;28;20034;-75
2022/07/17 01:11:56;;;;;;;5.88;4.35;;;25.30;93.30;;;;;;4963302;28;20046;-75
2022/07/17 01:14:24;;;;;;;7.28;4.40;;;25.30;93.40;;;;;;4969686;28;20031;-75
2022/07/17 01:16:51;;;;;;;5.70;4.20;;;25.30;93.40;;;;;;4959635;28;20038;-75
2022/07/17 01:19:17;;;;;;;6.55;4.65;;;25.40;93.30;;;;;;4963825;28;20374;-75
2022/07/17 01:21:45;;;;;;;6.63;4.45;;;25.50;93.30;;;;;;4961769;28;20039;-76
2022/07/17 01:24:11;;;;;;;8.07;4.35;;;25.40;93.30;;;;;;4970485;28;20035;-75
2022/07/17 01:26:40;;;;;;;6.50;4.70;;;25.40;93.30;;;;;;4962986;28;20031;-76
2022/07/17 01:29:06;;;;;;;6.10;4.32;;;25.30;93.50;;;;;;4965117;28;20050;-75
2022/07/17 01:31:31;;;;;;;5.45;4.20;;;25.10;93.80;;;;;;4969459;28;20501;-75
2022/07/17 01:34:00;;;;;;;6.07;4.63;;;25.20;93.80;;;;;;4967335;28;20018;-75
2022/07/17 01:36:26;;;;;;;5.85;4.20;;;25.20;93.80;;;;;;4970443;28;20039;-76
2022/07/17 01:38:51;;;;;;;11.52;4.90;;;25.20;93.80;;;;;;4961735;28;20034;-76
2022/07/17 01:41:17;;;;;;;7.72;4.47;;;25.10;94.00;;;;;;4966961;28;20452;-75
2022/07/17 01:43:43;;;;;;;5.65;4.22;;;25.10;94.10;;;;;;4957097;28;20505;-75
2022/07/17 01:46:08;;;;;;;6.65;4.35;;;25.10;94.10;;;;;;4961254;28;20033;-76
2022/07/17 01:48:34;;;;;;;6.55;4.28;;;25.00;94.30;;;;;;4962547;28;20473;-76
2022/07/17 01:51:00;;;;;;;8.93;4.70;;;25.10;94.40;;;;;;4963668;28;20082;-76
2022/07/17 01:53:26;;;;;;;7.32;4.50;;;25.10;94.40;;;;;;4962806;28;20038;-76
2022/07/17 01:55:52;;;;;;;6.15;4.88;;;25.20;94.30;;;;;;4968246;28;20101;-75
2022/07/17 01:58:17;;;;;;;8.10;4.78;;;25.20;94.30;;;;;;4970953;28;20031;-76
2022/07/17 02:00:44;;;;;;;7.72;5.55;;;25.10;94.50;;;;;;4965970;28;20039;-75
2022/07/17 02:03:09;;;;;;;7.68;5.20;;;25.00;94.50;;;;;;4968361;28;20043;-76
2022/07/17 02:05:35;;;;;;;6.25;4.75;;;25.10;94.60;;;;;;4968631;28;20035;-75
2022/07/17 02:08:01;;;;;;;7.38;4.43;;;25.10;94.60;;;;;;4961746;28;20039;-76
2022/07/17 02:10:27;;;;;;;6.25;4.75;;;25.10;94.60;;;;;;4967736;28;20122;-75
2022/07/17 02:12:53;;;;;;;7.82;5.15;;;25.00;94.80;;;;;;4969838;28;20035;-75
2022/07/17 02:15:19;;;;;;;6.55;4.70;;;24.90;94.90;;;;;;4970267;28;20038;-75
2022/07/17 02:17:44;;;;;;;7.90;6.25;;;24.90;95.10;;;;;;4960055;28;20486;-75
2022/07/17 02:20:12;;;;;;;7.07;4.90;;;24.80;95.10;;;;;;4967765;28;20093;-76
2022/07/17 02:22:38;;;;;;;7.30;5.78;;;24.90;95.20;;;;;;4967002;28;20121;-75
2022/07/17 02:25:05;;;;;;;7.75;5.30;;;24.90;95.20;;;;;;4967482;28;20031;-75
2022/07/17 02:27:32;;;;;;;7.60;4.97;;;24.90;95.10;;;;;;4963211;28;20113;-75
2022/07/17 02:29:57;;;;;;;7.65;5.25;;;25.00;95.20;;;;;;4967388;28;20027;-76
2022/07/17 02:32:23;;;;;;;6.63;4.88;;;25.00;95.10;;;;;;4965801;28;20034;-75
2022/07/17 02:34:49;;;;;;;19.05;5.50;;;25.00;95.20;;;;;;4965882;28;20054;-76
2022/07/17 02:37:14;;;;;;;7.15;5.50;;;24.90;95.50;;;;;;4968125;28;20069;-76
2022/07/17 02:39:52;;;;;;;8.20;5.38;;;24.80;95.40;;;;;;4964927;28;20478;-75
2022/07/17 02:42:22;;;;;;;9.82;5.38;;;24.80;95.50;;;;;;4961184;28;20125;-76
2022/07/17 02:44:47;;;;;;;8.68;5.15;;;24.70;95.80;;;;;;4969073;28;20037;-75
2022/07/17 02:47:25;;;;;;;9.18;4.63;;;24.70;95.90;;;;;;4956872;28;20062;-76
2022/07/17 02:49:51;;;;;;;7.47;5.07;;;24.70;95.80;;;;;;4968447;28;20397;-75
2022/07/17 02:52:18;;;;;;;7.65;5.28;;;24.70;95.80;;;;;;4962231;28;20470;-75
2022/07/17 02:54:44;;;;;;;7.70;5.63;;;24.70;95.90;;;;;;4963446;28;20430;-75
2022/07/17 02:57:10;;;;;;;8.40;5.40;;;24.70;95.90;;;;;;4966523;28;20402;-76
2022/07/17 02:59:36;;;;;;;7.97;5.38;;;24.70;95.80;;;;;;4967006;28;20026;-76
2022/07/17 03:02:02;;;;;;;7.18;4.97;;;24.70;95.80;;;;;;4965336;28;20042;-74
2022/07/17 03:04:28;;;;;;;6.65;5.18;;;24.70;95.80;;;;;;4962442;28;20505;-74
2022/07/17 03:06:53;;;;;;;7.13;5.50;;;24.60;96.00;;;;;;4963042;28;20031;-74
2022/07/17 03:09:19;;;;;;;8.52;5.80;;;24.60;96.20;;;;;;4960234;28;20470;-75
2022/07/17 03:11:45;;;;;;;6.38;4.90;;;24.50;96.20;;;;;;4963066;28;20027;-75
2022/07/17 03:14:10;;;;;;;7.68;5.68;;;24.50;96.30;;;;;;4964767;28;20118;-74
2022/07/17 03:16:36;;;;;;;7.03;5.78;;;24.50;96.00;;;;;;4962586;28;20037;-74
2022/07/17 03:19:02;;;;;;;7.65;5.05;;;24.60;96.00;;;;;;4965840;28;20035;-74
2022/07/17 03:21:27;;;;;;;6.43;5.15;;;24.60;95.90;;;;;;4960313;28;20045;-74
2022/07/17 03:23:53;;;;;;;6.50;5.53;;;24.50;95.90;;;;;;4962578;28;20031;-75
2022/07/17 03:26:19;;;;;;;8.88;5.50;;;24.60;95.80;;;;;;4964763;28;20445;-74
2022/07/17 03:28:44;;;;;;;7.57;5.15;;;24.50;96.00;;;;;;4966811;28;20126;-74
2022/07/17 03:31:10;;;;;;;7.55;4.97;;;24.30;96.40;;;;;;4960980;28;20113;-74
2022/07/17 03:33:35;;;;;;;7.78;5.63;;;24.30;96.50;;;;;;4961841;28;20035;-74
2022/07/17 03:36:01;;;;;;;8.38;5.22;;;24.20;96.50;;;;;;4969993;28;20613;-74
2022/07/17 03:38:27;;;;;;;7.15;4.65;;;24.10;96.70;;;;;;4961346;28;20506;-74
2022/07/17 03:40:52;;;;;;;8.25;5.35;;;23.70;97.40;;;;;;4961570;28;20031;-74
2022/07/17 03:43:18;;;;;;;6.95;5.00;;;23.80;97.40;;;;;;4957996;28;20423;-74
2022/07/17 03:45:44;;;;;;;7.22;5.80;;;23.70;97.60;;;;;;4968121;28;20508;-74
2022/07/17 03:48:10;;;;;;;7.35;5.60;;;23.50;98.00;;;;;;4964700;28;20138;-74
2022/07/17 03:50:35;;;;;;;7.82;5.63;;;23.60;98.00;;;;;;4964272;28;20097;-74
2022/07/17 03:53:01;;;;;;;9.50;5.10;;;23.60;98.00;;;;;;4967020;28;20379;-74
2022/07/17 03:55:27;;;;;;;6.53;5.25;;;23.40;98.20;;;;;;4966207;28;20030;-74
2022/07/17 03:57:53;;;;;;;7.75;6.10;;;23.40;98.20;;;;;;4961237;28;20033;-74
2022/07/17 04:00:18;;;;;;;7.10;5.25;;;23.30;98.30;;;;;;4956586;28;20035;-74
2022/07/17 04:02:44;;;;;;;8.73;5.65;;;23.50;98.30;;;;;;4964014;28;20054;-74
2022/07/17 04:05:10;;;;;;;6.70;5.60;;;23.60;98.00;;;;;;4963350;28;20105;-74
2022/07/17 04:07:37;;;;;;;7.18;5.68;;;23.50;98.20;;;;;;4958651;28;20497;-74
2022/07/17 04:10:04;;;;;;;18.58;5.75;;;23.70;98.10;;;;;;4959078;28;20027;-74
2022/07/17 04:12:30;;;;;;;9.02;5.88;;;23.70;97.90;;;;;;4962524;28;20648;-74
2022/07/17 04:14:55;;;;;;;8.55;5.28;;;23.70;97.80;;;;;;4959369;28;20035;-75
2022/07/17 04:17:21;;;;;;;7.15;5.38;;;23.70;97.80;;;;;;4956291;28;20046;-74
2022/07/17 04:19:48;;;;;;;7.25;5.40;;;23.50;98.10;;;;;;4964239;28;20105;-74
2022/07/17 04:22:13;;;;;;;6.40;5.07;;;23.60;98.20;;;;;;4962783;28;20240;-74
2022/07/17 04:24:39;;;;;;;8.20;5.20;;;23.50;98.10;;;;;;4965576;28;20478;-74
2022/07/17 04:27:05;;;;;;;6.30;5.22;;;23.50;98.30;;;;;;4957876;28;20034;-75
2022/07/17 04:29:31;;;;;;;9.23;5.15;;;23.40;98.50;;;;;;4961742;28;20097;-75
2022/07/17 04:31:56;;;;;;;7.82;5.22;;;23.20;98.60;;;;;;4962507;28;20031;-74
2022/07/17 04:34:22;;;;;;;7.97;5.25;;;23.10;98.80;;;;;;4958502;28;20030;-74
2022/07/17 04:36:48;;;;;;;7.45;6.25;;;23.10;99.00;;;;;;4959145;28;20037;-75
2022/07/17 04:39:13;;;;;;;6.07;4.88;;;23.20;98.70;;;;;;4946615;28;20122;-74
2022/07/17 04:41:39;;;;;;;7.35;5.40;;;23.20;98.70;;;;;;4961448;28;20174;-74
2022/07/17 04:44:05;;;;;;;8.10;5.32;;;23.40;98.50;;;;;;4956214;28;20038;-74
2022/07/17 04:46:30;;;;;;;7.65;5.53;;;23.40;98.30;;;;;;4952027;28;20471;-74
2022/07/17 04:48:56;;;;;;;6.65;5.10;;;23.40;98.10;;;;;;4960885;28;20042;-74
2022/07/17 04:51:21;;;;;;;6.25;4.88;;;23.40;98.40;;;;;;4958695;28;20047;-75
2022/07/17 04:53:47;;;;;;;6.97;5.45;;;23.10;98.80;;;;;;4961185;28;20026;-74
2022/07/17 04:56:13;;;;;;;7.45;5.25;;;23.00;99.20;;;;;;4959763;28;20034;-74
2022/07/17 04:58:39;;;;;;;10.70;5.80;;;23.00;99.50;;;;;;4959931;28;20363;-74
2022/07/17 05:01:04;;;;;;;7.20;5.63;;;22.90;99.60;;;;;;4958823;28;20043;-76
2022/07/17 05:03:30;;;;;;;7.18;5.60;;;22.90;99.40;;;;;;4965326;28;20054;-74
2022/07/17 05:05:56;;;;;;;6.82;5.10;;;22.90;99.60;;;;;;4963514;28;20489;-74
2022/07/17 05:08:21;;;;;;;7.90;5.90;;;22.90;99.70;;;;;;4956818;28;20104;-74
2022/07/17 05:10:47;;;;;;;8.32;5.30;;;23.10;99.40;;;;;;4961034;28;20027;-74
2022/07/17 05:13:13;;;;;;;6.90;5.20;;;23.20;99.00;;;;;;4962864;28;20035;-75
2022/07/17 05:15:39;;;;;;;8.57;5.25;;;23.40;98.60;;;;;;4952494;28;20027;-74
2022/07/17 05:18:04;;;;;;;10.75;6.05;;;23.60;98.20;;;;;;4959764;28;20130;-74
2022/07/17 05:20:30;;;;;;;8.00;5.93;;;23.50;98.40;;;;;;4962331;28;20039;-75
2022/07/17 05:22:56;;;;;;;7.30;5.85;;;23.30;98.90;;;;;;4961184;28;20042;-74
2022/07/17 05:25:22;;;;;;;6.65;5.47;;;23.40;98.70;;;;;;4959923;28;20720;-74
2022/07/17 05:27:48;;;;;;;9.75;5.78;;;23.70;98.30;;;;;;4960664;28;20022;-74
2022/07/17 05:30:14;;;;;;;6.78;5.55;;;23.80;98.20;;;;;;4961020;28;20058;-74
2022/07/17 05:32:40;;;;;;;7.13;5.43;;;23.90;98.00;;;;;;4953983;28;20590;-74
2022/07/17 05:35:06;;;;;;;7.28;5.93;;;23.80;97.90;;;;;;4961685;28;20034;-75
2022/07/17 05:37:31;;;;;;;6.78;4.85;;;23.90;96.00;;;;;;4954859;28;20054;-74
2022/07/17 05:39:57;;;;;;;7.55;5.18;;;24.00;95.50;;;;;;4960141;28;20026;-74
2022/07/17 05:42:22;;;;;;;6.60;4.78;;;24.00;95.90;;;;;;4959836;28;20478;-74
2022/07/17 05:44:48;;;;;;;8.48;5.68;;;24.20;95.00;;;;;;4961832;28;20502;-74
2022/07/17 05:47:14;;;;;;;8.63;5.07;;;24.20;96.10;;;;;;4959063;28;20446;-74
2022/07/17 05:49:40;;;;;;;6.82;4.68;;;24.10;96.60;;;;;;4961383;28;20045;-74
2022/07/17 05:52:05;;;;;;;6.60;5.20;;;24.30;96.40;;;;;;4955668;28;20343;-74
2022/07/17 05:54:32;;;;;;;8.15;5.63;;;24.30;96.80;;;;;;4959957;28;20497;-74
2022/07/17 05:56:59;;;;;;;6.68;5.13;;;24.30;96.90;;;;;;4960666;28;20038;-74
2022/07/17 05:59:24;;;;;;;6.85;5.35;;;24.50;96.80;;;;;;4956794;28;20489;-75
2022/07/17 06:01:50;;;;;;;8.13;6.10;;;24.50;96.80;;;;;;4961809;28;20093;-74
2022/07/17 06:04:16;;;;;;;7.00;4.85;;;24.50;97.10;;;;;;4965330;28;20038;-74
2022/07/17 06:06:41;;;;;;;7.32;5.65;;;24.60;96.90;;;;;;4965212;28;20031;-74
2022/07/17 06:09:07;;;;;;;6.40;5.32;;;24.50;96.90;;;;;;4961691;28;20075;-74
2022/07/17 06:11:33;;;;;;;6.82;4.97;;;24.50;95.30;;;;;;4961547;28;20027;-75
2022/07/17 06:14:00;;;;;;;7.97;5.43;;;24.50;94.60;;;;;;4959487;28;20031;-74
2022/07/17 06:16:25;;;;;;;6.30;4.93;;;24.50;93.70;;;;;;4961480;28;20043;-75
2022/07/17 06:18:51;;;;;;;6.63;5.72;;;24.60;94.00;;;;;;4956645;28;20089;-74
2022/07/17 06:21:17;;;;;;;6.53;4.97;;;24.60;94.20;;;;;;4954024;28;20105;-74
2022/07/17 06:23:42;;;;;;;8.23;5.28;;;24.70;93.90;;;;;;4959908;28;20051;-75
2022/07/17 06:26:08;;;;;;;6.97;5.85;;;24.70;94.00;;;;;;4963480;28;20815;-74
2022/07/17 06:28:34;;;;;;;7.07;5.35;;;24.70;94.00;;;;;;4965217;28;20035;-74
2022/07/17 06:31:00;;;;;;;6.32;5.18;;;24.80;94.10;;;;;;4965095;28;20019;-74
2022/07/17 06:33:25;;;;;;;6.70;5.40;;;24.80;93.90;;;;;;4960399;28;20042;-75
2022/07/17 06:35:51;;;;;;;8.25;5.47;;;24.80;93.70;;;;;;4967801;28;20038;-74
2022/07/17 06:38:16;;;;;;;6.95;4.90;;;24.90;93.90;;;;;;4962444;28;20070;-74
2022/07/17 06:40:42;;;;;;;6.47;5.68;;;25.00;93.50;;;;;;4963917;28;20382;-74
2022/07/17 06:43:08;;;;;;;8.20;5.57;;;25.10;93.70;;;;;;4971537;28;20393;-74
2022/07/17 06:45:34;;;;;;;9.23;5.40;;;25.10;93.80;;;;;;4960151;28;20039;-74
2022/07/17 06:48:00;;;;;;;8.20;5.70;;;25.20;93.20;;;;;;4956612;28;20381;-75
2022/07/17 06:50:26;;;;;;;6.68;5.10;;;25.20;93.30;;;;;;4973409;28;20034;-75
2022/07/17 06:52:51;;;;;;;8.10;5.85;;;25.30;93.00;;;;;;4958640;28;20039;-75
2022/07/17 06:55:17;;;;;;;6.72;5.40;;;25.30;93.50;;;;;;4971860;28;20031;-75
2022/07/17 06:57:43;;;;;;;8.35;5.90;;;25.40;93.40;;;;;;4976852;28;20098;-74
2022/07/17 07:00:09;;;;;;;9.52;5.38;;;25.50;93.40;;;;;;4972995;28;20102;-74
2022/07/17 07:02:35;;;;;;;12.38;5.45;;;25.70;93.30;;;;;;4971611;28;20509;-74
2022/07/17 07:05:01;;;;;;;7.00;5.57;;;25.80;92.60;;;;;;4972978;28;20102;-73
2022/07/17 07:07:26;;;;;;;6.55;5.15;;;25.80;92.50;;;;;;4971199;28;20114;-72
2022/07/17 07:09:52;;;;;;;9.05;4.65;;;26.00;92.30;;;;;;4969992;28;20030;-72
2022/07/17 07:12:18;;;;;;;7.88;5.55;;;26.30;91.90;;;;;;4966287;28;20097;-73
2022/07/17 07:14:43;;;;;;;12.30;6.90;;;26.40;91.90;;;;;;4968113;28;20039;-73
2022/07/17 07:17:09;;;;;;;7.13;5.38;;;26.50;92.70;;;;;;4968374;28;20035;-73
2022/07/17 07:19:35;;;;;;;6.40;5.25;;;26.70;92.10;;;;;;4966919;28;20049;-74
2022/07/17 07:22:00;;;;;;;6.38;5.38;;;26.80;92.00;;;;;;4967994;28;20049;-73
2022/07/17 07:24:26;;;;;;;10.05;5.45;;;27.00;91.40;;;;;;4968531;28;20042;-72
2022/07/17 07:26:52;;;;;;;7.63;5.68;;;27.20;91.20;;;;;;4967181;28;20481;-73
2022/07/17 07:29:17;;;;;;;6.88;4.90;;;27.30;91.50;;;;;;4968136;28;20134;-72
2022/07/17 07:31:43;;;;;;;8.70;5.93;;;27.70;91.20;;;;;;4966049;28;20030;-74
2022/07/17 07:34:09;;;;;;;6.55;5.40;;;28.30;90.80;;;;;;4965235;28;20031;-73
2022/07/17 07:36:34;;;;;;;6.32;4.80;;;28.80;90.30;;;;;;4967850;28;20097;-73
2022/07/17 07:39:00;;;;;;;8.88;5.18;;;29.50;88.20;;;;;;4954442;28;20041;-74
2022/07/17 07:41:26;;;;;;;6.93;5.22;;;30.30;85.80;;;;;;4965580;28;20034;-73
2022/07/17 07:43:51;;;;;;;7.82;5.78;;;30.90;84.70;;;;;;4966657;28;20121;-73
2022/07/17 07:46:17;;;;;;;6.90;4.30;;;31.50;83.90;;;;;;4963880;28;20110;-75
2022/07/17 07:48:43;;;;;;;7.88;4.32;;;32.30;83.00;;;;;;4953446;28;20496;-73
2022/07/17 07:51:08;;;;;;;7.40;5.00;;;33.00;81.40;;;;;;4964869;28;20081;-74
2022/07/17 07:53:34;;;;;;;7.68;5.28;;;32.80;81.20;;;;;;4967836;28;20042;-75
2022/07/17 07:56:00;;;;;;;7.47;4.70;;;32.40;81.10;;;;;;4966274;28;20030;-75
2022/07/17 07:58:25;;;;;;;8.50;4.78;;;32.10;80.90;;;;;;4966572;28;20065;-74
2022/07/17 08:00:51;;;;;;;6.53;4.80;;;32.60;81.30;;;;;;4967284;28;20525;-74
2022/07/17 08:03:17;;;;;;;20.85;6.80;;;32.60;80.90;;;;;;4967244;28;20129;-75
2022/07/17 08:05:43;;;;;;;7.85;4.93;;;32.30;82.00;;;;;;4968194;28;20549;-74
2022/07/17 08:08:08;;;;;;;6.60;4.00;;;32.00;81.20;;;;;;4967083;28;20496;-74
2022/07/17 08:10:34;;;;;;;7.72;4.78;;;31.10;80.80;;;;;;4967798;28;20030;-74
2022/07/17 08:13:00;;;;;;;8.43;4.75;;;30.50;82.30;;;;;;4967479;28;20105;-74
2022/07/17 08:15:26;;;;;;;7.60;4.57;;;30.20;83.00;;;;;;4967559;28;20030;-74
2022/07/17 08:17:53;;;;;;;24.08;6.05;;;30.10;83.80;;;;;;4967695;28;20035;-74
2022/07/17 08:20:20;;;;;;;6.05;4.72;;;30.00;83.80;;;;;;4967079;28;20514;-74
2022/07/17 08:22:46;;;;;;;5.93;4.00;;;29.70;84.30;;;;;;4967137;28;20034;-74
2022/07/17 08:25:12;;;;;;;10.48;5.70;;;29.80;83.00;;;;;;4967426;28;20083;-74
2022/07/17 08:27:39;;;;;;;6.68;4.30;;;29.90;83.50;;;;;;4967454;28;20511;-74
2022/07/17 08:30:07;;;;;;;16.50;6.03;;;29.50;84.50;;;;;;4967599;28;20035;-74
2022/07/17 08:32:33;;;;;;;8.43;4.97;;;29.50;85.80;;;;;;4967266;28;20355;-75
2022/07/17 08:35:00;;;;;;;8.13;5.13;;;29.60;84.70;;;;;;4967502;28;20031;-74
2022/07/17 08:37:26;;;;;;;6.60;4.90;;;29.70;84.50;;;;;;4967182;28;20034;-75
2022/07/17 08:39:52;;;;;;;7.20;4.90;;;29.90;84.50;;;;;;4967089;28;20674;-74
2022/07/17 08:42:17;;;;;;;5.63;4.13;;;29.40;84.70;;;;;;4967090;28;20046;-74
2022/07/17 08:44:44;;;;;;;10.02;5.97;;;29.60;84.80;;;;;;4967094;28;20393;-75
2022/07/17 08:47:12;;;;;;;6.03;4.25;;;29.80;84.50;;;;;;4966987;28;20707;-74
2022/07/17 08:49:43;;;;;;;7.45;5.55;;;29.70;83.00;;;;;;4966141;28;20035;-74
2022/07/17 08:52:11;;;;;;;6.18;4.60;;;29.90;83.50;;;;;;4965686;28;20031;-74
2022/07/17 08:54:36;;;;;;;7.20;5.15;;;30.10;84.00;;;;;;4965730;28;20485;-74
2022/07/17 08:57:03;;;;;;;8.27;4.35;;;29.90;83.60;;;;;;4965699;28;20058;-75
2022/07/17 08:59:29;;;;;;;7.35;4.97;;;30.10;83.20;;;;;;4966481;28;20034;-74
2022/07/17 09:01:55;;;;;;;8.60;5.10;;;30.00;82.80;;;;;;4965639;28;20046;-74
2022/07/17 09:04:20;;;;;;;9.73;4.85;;;30.30;83.60;;;;;;4966552;28;20090;-73
2022/07/17 09:06:46;;;;;;;6.32;4.60;;;30.40;83.40;;;;;;4966374;28;20385;-74
2022/07/17 09:09:14;;;;;;;7.03;4.13;;;30.30;83.50;;;;;;4966777;28;20035;-74
2022/07/17 09:11:45;;;;;;;6.07;4.03;;;30.40;83.10;;;;;;4966636;28;20077;-74
2022/07/17 09:14:11;;;;;;;7.85;4.45;;;30.70;84.30;;;;;;4966130;28;20034;-74
2022/07/17 09:16:49;;;;;;;8.25;4.88;;;30.80;82.50;;;;;;4966134;28;20037;-74
2022/07/17 09:19:28;;;;;;;5.57;4.03;;;30.70;83.10;;;;;;4966846;28;20031;-74
2022/07/17 09:22:08;;;;;;;12.32;4.90;;;30.70;82.30;;;;;;4966933;28;20110;-74
2022/07/17 09:24:43;;;;;;;7.10;4.72;;;30.80;82.00;;;;;;4967463;28;20150;-74
2022/07/17 09:27:11;;;;;;;13.93;4.60;;;31.00;82.70;;;;;;4967657;28;20027;-74
2022/07/17 09:29:51;;;;;;;7.43;4.90;;;31.30;83.80;;;;;;4966972;28;20035;-74
2022/07/17 09:32:19;;;;;;;5.85;4.38;;;31.70;82.20;;;;;;4966534;28;20035;-74
2022/07/17 09:34:48;;;;;;;10.63;4.78;;;31.30;81.90;;;;;;4966610;28;20536;-74
2022/07/17 09:37:14;;;;;;;10.65;4.50;;;31.20;81.80;;;;;;4967363;28;20489;-74
2022/07/17 09:39:41;;;;;;;10.43;4.88;;;31.60;82.50;;;;;;4967242;28;20042;-74
2022/07/17 09:42:07;;;;;;;6.72;4.60;;;32.00;82.60;;;;;;4966744;28;20093;-74
2022/07/17 09:44:33;;;;;;;5.88;3.90;;;31.90;82.00;;;;;;4966599;28;20042;-74
2022/07/17 09:47:00;;;;;;;6.57;4.10;;;32.20;81.10;;;;;;4966878;28;20031;-74
2022/07/17 09:49:28;;;;;;;9.02;4.60;;;31.80;80.60;;;;;;4966530;28;20030;-74
2022/07/17 09:51:54;;;;;;;7.28;4.80;;;31.80;81.40;;;;;;4966500;28;20106;-74
2022/07/17 09:54:23;;;;;;;5.97;5.38;;;32.00;81.00;;;;;;4966027;28;20319;-74
2022/07/17 09:56:57;;;;;;;8.32;3.70;;;32.10;81.30;;;;;;4966961;28;20027;-74
2022/07/17 09:59:26;;;;;;;7.10;3.95;;;32.50;81.80;;;;;;4966767;28;20053;-74
2022/07/17 10:01:53;;;;;;;5.95;4.72;;;32.70;81.30;;;;;;4966906;28;20047;-74
2022/07/17 10:04:19;;;;;;;7.97;4.60;;;32.70;81.20;;;;;;4966598;28;20110;-74
2022/07/17 10:06:45;;;;;;;5.40;4.30;;;32.20;81.20;;;;;;4966256;28;20114;-74
2022/07/17 10:09:11;;;;;;;6.85;4.43;;;32.60;81.90;;;;;;4965667;28;20606;-74
2022/07/17 10:11:38;;;;;;;4.97;4.10;;;32.80;80.90;;;;;;4965919;28;20034;-74
2022/07/17 10:14:11;;;;;;;6.20;4.80;;;32.70;79.50;;;;;;4966351;28;20038;-74
2022/07/17 10:16:38;;;;;;;5.93;4.38;;;32.80;79.90;;;;;;4965865;28;20113;-74
2022/07/17 10:19:22;;;;;;;6.07;4.30;;;32.90;81.10;;;;;;4948635;28;20422;-73
2022/07/17 10:21:56;;;;;;;5.68;4.30;;;32.90;79.60;;;;;;4954994;28;20478;-74
2022/07/17 10:24:22;;;;;;;7.25;4.18;;;33.00;78.80;;;;;;4966322;28;20173;-74
2022/07/17 10:26:51;;;;;;;6.45;4.55;;;33.20;79.40;;;;;;4966674;28;20654;-74
2022/07/17 10:29:30;;;;;;;6.60;4.93;;;33.20;79.50;;;;;;4966273;28;20035;-74
2022/07/17 10:31:56;;;;;;;5.80;4.90;;;33.40;79.20;;;;;;4966046;28;20629;-74
2022/07/17 10:34:44;;;;;;;9.52;4.80;;;33.20;79.30;;;;;;4965951;28;20054;-74
2022/07/17 10:37:20;;;;;;;5.47;4.20;;;33.30;79.20;;;;;;4967141;28;20058;-74
2022/07/17 10:39:54;;;;;;;5.28;4.07;;;33.80;78.10;;;;;;4966321;28;20027;-74
2022/07/17 10:42:51;;;;;;;5.97;4.50;;;34.10;79.00;;;;;;4966182;28;20134;-74
2022/07/17 10:45:20;;;;;;;6.00;4.05;;;33.90;78.30;;;;;;4966183;28;20457;-74
2022/07/17 10:47:48;;;;;;;9.65;4.68;;;33.70;77.60;;;;;;4966842;28;20027;-74
2022/07/17 10:50:15;;;;;;;5.70;4.28;;;33.70;77.10;;;;;;4965783;28;20034;-74
2022/07/17 10:52:41;;;;;;;8.75;4.82;;;33.80;77.40;;;;;;4966362;28;20023;-74
2022/07/17 10:55:19;;;;;;;9.75;4.72;;;34.20;77.00;;;;;;4965656;28;20029;-74
2022/07/17 10:57:46;;;;;;;5.82;4.00;;;34.30;76.50;;;;;;4966573;28;20041;-74
2022/07/17 11:00:12;;;;;;;5.47;4.20;;;34.10;77.10;;;;;;4966343;28;20038;-74
2022/07/17 11:02:38;;;;;;;7.05;4.63;;;33.90;76.20;;;;;;4965791;28;20042;-74
2022/07/17 11:05:08;;;;;;;10.18;4.32;;;33.80;77.00;;;;;;4966129;28;20093;-74
2022/07/17 11:07:34;;;;;;;9.68;4.72;;;34.10;76.80;;;;;;4965518;28;20038;-74
2022/07/17 11:10:00;;;;;;;7.15;5.20;;;34.10;76.40;;;;;;4965630;28;20027;-74
2022/07/17 11:12:32;;;;;;;9.32;4.30;;;34.30;76.40;;;;;;4966038;28;20057;-74
2022/07/17 11:15:03;;;;;;;7.45;4.90;;;34.40;77.10;;;;;;4966220;28;20126;-74
2022/07/17 11:17:29;;;;;;;15.02;4.97;;;34.30;76.00;;;;;;4965998;28;20031;-74
2022/07/17 11:19:55;;;;;;;6.63;4.55;;;34.60;76.00;;;;;;4965627;28;20078;-74
2022/07/17 11:22:25;;;;;;;7.50;4.88;;;34.70;76.00;;;;;;4969196;28;20114;-74
2022/07/17 11:24:51;;;;;;;9.27;4.68;;;34.20;76.30;;;;;;4969970;28;20038;-74
2022/07/17 11:27:29;;;;;;;6.32;4.88;;;34.00;75.80;;;;;;4969614;28;20035;-74
2022/07/17 11:29:57;;;;;;;7.70;4.82;;;33.80;76.30;;;;;;4953820;28;20620;-74
2022/07/17 11:32:25;;;;;;;8.05;4.80;;;34.10;76.60;;;;;;4971983;28;20609;-74
2022/07/17 11:34:51;;;;;;;8.75;4.32;;;34.30;76.20;;;;;;4971621;28;20023;-74
2022/07/17 11:37:17;;;;;;;7.40;5.07;;;34.20;76.70;;;;;;4972065;28;20034;-74
2022/07/17 11:39:50;;;;;;;6.60;4.82;;;34.40;76.60;;;;;;4971837;28;20034;-74
2022/07/17 11:42:20;;;;;;;7.93;4.30;;;34.20;76.10;;;;;;4972008;28;20031;-74
2022/07/17 11:44:51;;;;;;;16.50;5.28;;;34.50;76.00;;;;;;4972071;28;20030;-74
2022/07/17 11:47:27;;;;;;;6.07;4.55;;;34.60;76.50;;;;;;4971588;28;20065;-74
2022/07/17 11:50:25;;;;;;;9.10;4.72;;;34.40;76.30;;;;;;4972154;28;20522;-74
2022/07/17 11:52:51;;;;;;;6.70;4.43;;;34.50;76.80;;;;;;4920005;29;20075;-74
2022/07/17 11:55:17;;;;;;;6.15;4.57;;;34.40;75.80;;;;;;4954959;28;20073;-73
2022/07/17 11:57:49;;;;;;;8.38;4.65;;;34.30;76.60;;;;;;4971333;28;20034;-71
2022/07/17 12:00:17;;;;;;;5.50;4.00;;;34.80;75.70;;;;;;4971669;28;20037;-72
2022/07/17 12:02:44;;;;;;;7.13;4.18;;;34.20;75.70;;;;;;4971370;28;20112;-72
2022/07/17 12:05:10;;;;;;;5.97;4.20;;;34.40;76.10;;;;;;4971439;28;20031;-71
2022/07/17 12:07:45;;;;;;;6.50;3.80;;;34.50;75.60;;;;;;4970053;28;20039;-71
2022/07/17 12:10:23;;;;;;;7.03;3.78;;;34.60;75.70;;;;;;4968873;28;20030;-71
2022/07/17 12:12:53;;;;;;;7.28;4.10;;;34.90;75.70;;;;;;4968571;28;20031;-71
2022/07/17 12:15:19;;;;;;;9.25;4.38;;;34.50;75.30;;;;;;4967951;28;20049;-71
2022/07/17 12:17:45;;;;;;;8.82;4.75;;;34.90;75.30;;;;;;4967897;28;20458;-71
2022/07/17 12:20:11;;;;;;;5.53;3.83;;;34.90;75.30;;;;;;4967854;28;20038;-72
2022/07/17 12:22:47;;;;;;;6.78;3.97;;;34.80;74.90;;;;;;4968059;28;20071;-71
2022/07/17 12:25:26;;;;;;;8.57;4.00;;;34.70;75.00;;;;;;4968307;28;20420;-71
2022/07/17 12:27:52;;;;;;;7.05;4.07;;;34.60;74.70;;;;;;4967769;28;20057;-71
2022/07/17 12:30:19;;;;;;;7.00;4.45;;;34.70;74.50;;;;;;4967551;28;20046;-71
2022/07/17 12:32:45;;;;;;;13.27;4.20;;;34.60;75.10;;;;;;4966796;28;20018;-71
2022/07/17 12:35:11;;;;;;;5.03;3.80;;;34.30;74.70;;;;;;4967650;28;20106;-71
2022/07/17 12:37:36;;;;;;;4.95;3.63;;;34.40;74.60;;;;;;4967883;28;20122;-71
2022/07/17 12:40:03;;;;;;;5.57;3.80;;;34.00;75.20;;;;;;4967335;28;20558;-71
2022/07/17 12:42:29;;;;;;;9.15;4.30;;;34.60;74.70;;;;;;4967524;28;20485;-71
2022/07/17 12:44:55;;;;;;;11.20;3.65;;;34.90;74.10;;;;;;4983115;28;20030;-71